Time;durP1;ratioP1;P1;durP2;ratioP2;P2;SDS_P1;SDS_P2;PMS_P1;PMS_P2;Temp;Humidity;BMP_temperature;BMP_pressure;BME280_temperature;BME280_humidity;BME280_pressure;Samples;Min_cycle;Max_cycle;Signal;HPM_P1;HPM_P2
2022/11/15 00:01:48;;;;;;;5.80;4.07;;;19.30;43.80;18.40;100566.00;;;;5072479;28;20056;-66
2022/11/15 00:04:14;;;;;;;5.40;3.80;;;19.30;43.80;18.40;100575.00;;;;5072676;28;20119;-66
2022/11/15 00:06:40;;;;;;;6.43;4.73;;;19.30;43.80;18.40;100569.00;;;;5072397;28;20076;-66
2022/11/15 00:09:05;;;;;;;5.40;4.57;;;19.30;43.90;18.40;100560.00;;;;5070789;28;20119;-66
2022/11/15 00:11:31;;;;;;;4.73;3.93;;;19.20;43.80;18.40;100567.00;;;;5072831;28;20096;-66
2022/11/15 00:13:57;;;;;;;5.30;4.03;;;19.30;43.90;18.40;100571.00;;;;5068576;28;20071;-66
2022/11/15 00:16:23;;;;;;;6.13;4.38;;;19.30;43.90;18.40;100561.00;;;;5054336;28;20040;-66
2022/11/15 00:18:49;;;;;;;5.75;3.58;;;19.30;43.80;18.40;100555.00;;;;5054448;28;20102;-66
2022/11/15 00:21:15;;;;;;;4.82;4.05;;;19.30;43.80;18.40;100557.00;;;;5072218;28;20032;-66
2022/11/15 00:23:41;;;;;;;5.53;3.92;;;19.30;43.90;18.40;100557.00;;;;5053729;28;20048;-66
2022/11/15 00:26:08;;;;;;;4.80;4.07;;;19.20;43.80;18.40;100566.00;;;;5076503;28;20090;-66
2022/11/15 00:28:34;;;;;;;4.63;3.83;;;19.30;43.90;18.40;100563.00;;;;5053911;28;20043;-66
2022/11/15 00:31:01;;;;;;;5.17;3.90;;;19.30;43.80;18.40;100559.00;;;;5072371;28;20390;-66
2022/11/15 00:33:27;;;;;;;5.90;4.20;;;19.30;43.80;18.40;100558.00;;;;5053583;28;20088;-66
2022/11/15 00:35:53;;;;;;;6.07;4.40;;;19.30;43.80;18.40;100547.00;;;;5071860;28;20036;-66
2022/11/15 00:38:19;;;;;;;4.80;3.90;;;19.30;43.80;18.40;100547.00;;;;5071702;28;20290;-66
2022/11/15 00:40:44;;;;;;;4.57;3.73;;;19.30;43.90;18.40;100549.00;;;;5071557;28;20052;-66
2022/11/15 00:43:10;;;;;;;4.90;4.27;;;19.30;43.80;18.40;100547.00;;;;5050889;28;20060;-66
2022/11/15 00:45:36;;;;;;;4.47;3.60;;;19.30;43.80;18.40;100554.00;;;;5072208;28;21462;-66
2022/11/15 00:48:01;;;;;;;4.77;3.83;;;19.30;43.80;18.40;100545.00;;;;5071696;28;20477;-66
2022/11/15 00:50:27;;;;;;;5.13;3.90;;;19.30;43.90;18.40;100547.00;;;;5071599;28;20060;-66
2022/11/15 00:52:53;;;;;;;4.97;4.17;;;19.30;43.90;18.40;100541.00;;;;5069842;28;20124;-66
2022/11/15 00:55:19;;;;;;;6.07;4.13;;;19.30;43.90;18.40;100543.00;;;;5079009;28;21744;-66
2022/11/15 00:57:45;;;;;;;5.60;4.47;;;19.20;43.80;18.40;100538.00;;;;5053197;28;20078;-66
2022/11/15 01:00:11;;;;;;;5.72;4.45;;;19.40;43.90;18.40;100535.00;;;;5053173;28;20040;-66
2022/11/15 01:02:37;;;;;;;5.60;4.03;;;19.30;43.90;18.40;100533.00;;;;5075297;28;20079;-66
2022/11/15 01:05:03;;;;;;;5.47;4.20;;;19.30;44.00;18.40;100539.00;;;;5081074;28;20486;-66
2022/11/15 01:07:28;;;;;;;6.40;4.47;;;19.30;43.90;18.30;100523.00;;;;5052878;28;20460;-66
2022/11/15 01:09:54;;;;;;;5.40;4.20;;;19.30;43.90;18.40;100533.00;;;;5071779;28;20528;-66
2022/11/15 01:12:20;;;;;;;4.30;3.50;;;19.30;43.90;18.40;100529.00;;;;5070249;28;20129;-66
2022/11/15 01:14:45;;;;;;;7.30;4.47;;;19.30;43.90;18.40;100522.00;;;;5071979;28;20444;-66
2022/11/15 01:17:11;;;;;;;6.27;4.10;;;19.30;43.90;18.40;100523.00;;;;5070714;28;20508;-66
2022/11/15 01:19:37;;;;;;;4.80;3.90;;;19.30;43.90;18.40;100521.00;;;;5070956;28;20067;-66
2022/11/15 01:22:03;;;;;;;4.60;3.50;;;19.30;43.90;18.40;100520.00;;;;5070880;28;20064;-66
2022/11/15 01:24:28;;;;;;;4.67;3.97;;;19.30;43.90;18.40;100516.00;;;;5069787;28;20056;-66
2022/11/15 01:26:54;;;;;;;4.90;3.70;;;19.30;43.90;18.40;100515.00;;;;5070257;28;20111;-66
2022/11/15 01:29:20;;;;;;;4.23;3.53;;;19.30;43.90;18.40;100509.00;;;;5070786;28;20060;-66
2022/11/15 01:31:45;;;;;;;5.10;3.80;;;19.30;43.90;18.40;100505.00;;;;5071523;28;20104;-66
2022/11/15 01:34:11;;;;;;;5.47;4.07;;;19.30;43.90;18.40;100497.00;;;;5069803;28;20443;-66
2022/11/15 01:36:37;;;;;;;5.77;3.90;;;19.30;43.90;18.40;100495.00;;;;5070723;28;20473;-66
2022/11/15 01:39:03;;;;;;;4.77;3.67;;;19.20;43.80;18.40;100494.00;;;;5070755;28;20127;-66
2022/11/15 01:41:31;;;;;;;5.67;3.77;;;19.30;43.90;18.40;100492.00;;;;5069941;28;20039;-66
2022/11/15 01:44:33;;;;;;;5.07;4.10;;;19.30;43.90;18.40;100496.00;;;;5052813;28;20060;-66
2022/11/15 01:47:01;;;;;;;5.50;4.07;;;19.30;43.90;18.40;100488.00;;;;5071643;28;20036;-66
2022/11/15 01:49:26;;;;;;;4.65;3.50;;;19.30;43.80;18.40;100492.00;;;;5051582;28;20029;-66
2022/11/15 01:51:52;;;;;;;5.47;3.43;;;19.30;43.80;18.40;100487.00;;;;5051928;28;20048;-66
2022/11/15 01:54:20;;;;;;;3.73;3.20;;;19.30;43.90;18.40;100485.00;;;;5062605;28;20067;-66
2022/11/15 01:57:01;;;;;;;5.78;3.75;;;19.30;43.90;18.40;100472.00;;;;5053394;28;20032;-66
2022/11/15 01:59:26;;;;;;;4.32;3.50;;;19.30;43.90;18.40;100472.00;;;;5051448;28;20074;-66
2022/11/15 02:01:52;;;;;;;4.37;3.17;;;19.30;43.80;18.40;100471.00;;;;5078766;28;20248;-66
2022/11/15 02:04:43;;;;;;;5.10;3.70;;;19.30;43.90;18.40;100476.00;;;;5069840;28;20115;-66
2022/11/15 02:07:11;;;;;;;4.93;3.80;;;19.30;43.90;18.40;100463.00;;;;5070421;28;20025;-66
2022/11/15 02:09:37;;;;;;;4.32;3.50;;;19.30;43.80;18.40;100457.00;;;;5051503;28;20029;-66
2022/11/15 02:12:03;;;;;;;4.35;3.67;;;19.30;43.90;18.40;100466.00;;;;5041148;28;20108;-66
2022/11/15 02:14:29;;;;;;;6.43;3.67;;;19.30;43.90;18.40;100461.00;;;;5052687;28;20033;-66
2022/11/15 02:17:20;;;;;;;4.40;3.27;;;19.30;43.90;18.40;100457.00;;;;5051745;28;20097;-66
2022/11/15 02:20:05;;;;;;;5.63;3.30;;;19.30;43.90;18.40;100454.00;;;;5053167;28;20473;-66
2022/11/15 02:23:11;;;;;;;5.15;4.28;;;19.30;43.90;18.30;100441.00;;;;5069995;28;20036;-66
2022/11/15 02:25:51;;;;;;;4.95;3.28;;;19.30;43.90;18.40;100441.00;;;;5050984;28;20040;-66
2022/11/15 02:28:41;;;;;;;5.90;3.85;;;19.30;43.90;18.30;100433.00;;;;5069526;28;20032;-66
2022/11/15 02:31:47;;;;;;;4.55;3.30;;;19.30;44.00;18.30;100436.00;;;;5051756;28;20029;-66
2022/11/15 02:34:35;;;;;;;4.78;3.88;;;19.30;44.00;18.30;100440.00;;;;5037508;28;20047;-66
2022/11/15 02:37:10;;;;;;;3.28;2.95;;;19.30;44.10;18.30;100448.00;;;;5037126;28;20036;-66
2022/11/15 02:39:49;;;;;;;5.65;3.60;;;19.30;44.10;18.30;100443.00;;;;5041124;28;20029;-66
2022/11/15 02:45:09;;;;;;;5.28;3.67;;;19.30;44.10;18.30;100438.00;;;;5040986;28;20086;-66
2022/11/15 02:47:42;;;;;;;4.15;3.30;;;19.30;44.20;18.30;100440.00;;;;5062235;28;20094;-66
2022/11/15 02:50:13;;;;;;;4.10;3.28;;;19.20;44.10;18.40;100435.00;;;;5048763;28;20500;-66
2022/11/15 02:52:39;;;;;;;5.28;3.28;;;19.20;44.10;18.30;100435.00;;;;5051261;28;20036;-66
2022/11/15 02:55:05;;;;;;;4.40;3.03;;;19.30;44.20;18.30;100432.00;;;;5052298;28;20032;-66
2022/11/15 02:58:53;;;;;;;5.45;3.47;;;19.30;44.20;18.30;100432.00;;;;5070111;28;20039;-66
2022/11/15 03:01:39;;;;;;;3.03;2.72;;;19.30;44.30;18.30;100431.00;;;;5012023;28;20064;-66
2022/11/15 03:04:15;;;;;;;4.95;3.47;;;19.30;44.20;18.30;100428.00;;;;5051708;28;20029;-66
2022/11/15 03:07:14;;;;;;;5.28;3.05;;;19.30;44.30;18.30;100429.00;;;;5062699;28;20389;-66
2022/11/15 03:10:04;;;;;;;4.03;3.30;;;19.20;44.20;18.30;100433.00;;;;5030184;28;20052;-66
2022/11/15 03:13:06;;;;;;;3.85;3.30;;;19.20;44.30;18.30;100444.00;;;;5058777;28;20032;-66
2022/11/15 03:15:36;;;;;;;4.10;2.90;;;19.30;44.40;18.30;100433.00;;;;5039136;28;20048;-66
2022/11/15 03:18:10;;;;;;;5.50;3.33;;;19.30;44.40;18.30;100428.00;;;;5078553;28;20090;-66
2022/11/15 03:20:36;;;;;;;4.28;2.85;;;19.30;44.40;18.30;100435.00;;;;5060811;28;20059;-66
2022/11/15 03:23:06;;;;;;;5.37;3.37;;;19.30;44.50;18.30;100420.00;;;;5051790;28;20036;-66
2022/11/15 03:25:33;;;;;;;3.63;3.00;;;19.30;44.50;18.30;100424.00;;;;5057074;28;20043;-66
2022/11/15 03:27:59;;;;;;;3.75;3.20;;;19.30;44.50;18.40;100419.00;;;;5035158;28;20484;-66
2022/11/15 03:30:25;;;;;;;3.45;2.65;;;19.30;44.50;18.30;100425.00;;;;5048548;28;20086;-66
2022/11/15 03:32:54;;;;;;;4.20;3.17;;;19.30;44.60;18.40;100434.00;;;;5051087;28;20416;-66
2022/11/15 03:35:22;;;;;;;3.83;2.88;;;19.40;44.60;18.40;100434.00;;;;5051533;28;20047;-66
2022/11/15 03:38:02;;;;;;;3.10;2.58;;;19.30;44.60;18.40;100433.00;;;;5051738;28;20097;-66
2022/11/15 03:40:39;;;;;;;3.92;2.70;;;19.30;44.70;18.40;100443.00;;;;5074992;28;20025;-66
2022/11/15 03:43:34;;;;;;;3.25;2.90;;;19.30;44.60;18.40;100434.00;;;;5047883;28;20035;-66
2022/11/15 03:46:04;;;;;;;4.18;2.72;;;19.30;44.70;18.40;100442.00;;;;5054774;28;20031;-66
2022/11/15 03:48:37;;;;;;;3.70;2.92;;;19.30;44.70;18.40;100438.00;;;;5052822;28;20078;-66
2022/11/15 03:51:03;;;;;;;4.00;3.03;;;19.30;44.70;18.40;100431.00;;;;5054495;28;20055;-66
2022/11/15 03:53:30;;;;;;;3.22;2.30;;;19.30;44.70;18.40;100442.00;;;;5055084;28;20039;-66
2022/11/15 03:55:56;;;;;;;5.13;2.97;;;19.30;44.80;18.40;100436.00;;;;5054481;28;20036;-66
2022/11/15 03:58:22;;;;;;;4.30;3.00;;;19.30;44.80;18.40;100444.00;;;;5072554;28;20478;-66
2022/11/15 04:00:47;;;;;;;4.90;2.57;;;19.30;44.80;18.40;100435.00;;;;5072478;28;20480;-66
2022/11/15 04:03:13;;;;;;;4.07;2.53;;;19.20;44.70;18.40;100431.00;;;;5072636;28;20500;-66
2022/11/15 04:05:39;;;;;;;2.60;2.40;;;19.30;44.80;18.40;100431.00;;;;5072642;28;20450;-66
2022/11/15 04:08:04;;;;;;;4.50;2.90;;;19.30;44.80;18.40;100426.00;;;;5072168;28;20490;-66
2022/11/15 04:10:30;;;;;;;3.97;2.70;;;19.30;44.80;18.40;100421.00;;;;5072303;28;20032;-66
2022/11/15 04:12:56;;;;;;;4.57;2.60;;;19.30;44.80;18.40;100428.00;;;;5072674;28;20064;-66
2022/11/15 04:15:22;;;;;;;4.97;2.87;;;19.40;44.90;18.40;100418.00;;;;5071696;28;20462;-66
2022/11/15 04:17:56;;;;;;;3.17;2.20;;;19.30;44.90;18.40;100410.00;;;;5071577;28;20032;-66
2022/11/15 04:26:00;;;;;;;2.88;2.47;;;19.40;45.00;18.40;100423.00;;;;5056799;28;20071;-66
2022/11/15 04:28:26;;;;;;;4.13;2.33;;;19.40;45.00;18.40;100418.00;;;;5040779;28;20054;-66
2022/11/15 04:30:52;;;;;;;4.27;2.83;;;19.40;45.00;18.40;100435.00;;;;5075017;28;20032;-66
2022/11/15 04:33:18;;;;;;;3.17;2.63;;;19.40;45.00;18.50;100427.00;;;;5071751;28;20037;-66
2022/11/15 04:37:11;;;;;;;4.63;2.97;;;19.50;45.10;18.40;100428.00;;;;5054259;28;20041;-66
2022/11/15 04:38:29;;;;;;;4.18;2.10;;;19.40;45.00;18.40;100431.00;;;;5070429;28;20490;-66
2022/11/15 04:40:55;;;;;;;3.43;2.53;;;19.40;45.00;18.40;100430.00;;;;5072130;28;20063;-66
2022/11/15 04:43:21;;;;;;;3.17;2.63;;;19.40;45.10;18.40;100426.00;;;;5071338;28;20071;-66
2022/11/15 04:45:46;;;;;;;2.93;2.40;;;19.30;45.00;18.50;100426.00;;;;5071881;28;20174;-66
2022/11/15 04:48:12;;;;;;;4.40;2.80;;;19.50;45.10;18.50;100429.00;;;;5071440;28;20143;-66
2022/11/15 04:50:38;;;;;;;4.17;2.83;;;19.40;45.10;18.50;100436.00;;;;5071418;28;20063;-66
2022/11/15 04:53:04;;;;;;;3.03;2.30;;;19.40;45.10;18.50;100433.00;;;;5071031;28;20107;-66
2022/11/15 04:55:29;;;;;;;2.37;2.10;;;19.40;45.10;18.50;100431.00;;;;5070374;28;20112;-66
2022/11/15 04:58:02;;;;;;;4.10;2.77;;;19.50;45.10;18.50;100427.00;;;;5071123;28;20136;-67
2022/11/15 05:00:28;;;;;;;2.83;2.53;;;19.40;45.20;18.50;100431.00;;;;5075901;28;20033;-66
2022/11/15 05:05:39;;;;;;;4.13;2.70;;;19.40;45.10;18.50;100424.00;;;;5071067;28;20074;-66
2022/11/15 05:08:04;;;;;;;2.30;2.10;;;19.40;45.20;18.50;100427.00;;;;5070831;28;20025;-67
2022/11/15 05:10:30;;;;;;;4.87;2.70;;;19.40;45.20;18.50;100426.00;;;;5053264;28;20028;-66
2022/11/15 05:12:56;;;;;;;3.90;2.90;;;19.40;45.20;18.50;100432.00;;;;5070339;28;20060;-66
2022/11/15 05:15:22;;;;;;;2.47;2.20;;;19.40;45.20;18.50;100426.00;;;;5070423;28;20043;-66
2022/11/15 05:17:47;;;;;;;3.10;2.03;;;19.40;45.20;18.50;100427.00;;;;5071057;28;20592;-66
2022/11/15 05:20:13;;;;;;;2.50;2.10;;;19.50;45.20;18.50;100423.00;;;;5071035;28;20533;-66
2022/11/15 05:22:39;;;;;;;3.60;2.38;;;19.40;45.20;18.50;100432.00;;;;5070653;28;20025;-66
2022/11/15 05:25:06;;;;;;;3.50;2.17;;;19.40;45.20;18.50;100421.00;;;;5053281;28;20471;-66
2022/11/15 05:27:32;;;;;;;2.50;2.28;;;19.40;45.20;18.50;100428.00;;;;5052758;28;20036;-66
2022/11/15 05:29:58;;;;;;;;;;;19.50;45.30;18.50;100409.00;;;;5071662;28;20025;-66
2022/11/15 05:32:24;;;;;;;3.05;2.08;;;19.50;45.10;18.50;100414.00;;;;5069091;28;19923;-66
2022/11/15 05:34:50;;;;;;;3.53;2.40;;;19.50;45.10;18.50;100417.00;;;;5052801;28;20032;-66
2022/11/15 05:37:16;;;;;;;3.70;2.33;;;19.50;45.20;18.50;100421.00;;;;5051027;28;20479;-66
2022/11/15 05:39:42;;;;;;;3.28;2.15;;;19.50;45.20;18.50;100425.00;;;;5070732;28;20036;-66
2022/11/15 05:42:13;;;;;;;3.93;2.50;;;19.50;45.20;18.50;100409.00;;;;5070653;28;20051;-66
2022/11/15 05:44:41;;;;;;;4.82;2.05;;;19.50;45.30;18.50;100401.00;;;;5052790;28;20496;-66
2022/11/15 05:47:09;;;;;;;2.83;2.38;;;19.50;45.30;18.50;100392.00;;;;5051817;28;20041;-66
2022/11/15 05:49:35;;;;;;;3.17;1.92;;;19.50;45.30;18.60;100402.00;;;;5068323;28;20024;-66
2022/11/15 05:52:03;;;;;;;;;;;19.40;45.30;18.50;100399.00;;;;5069820;28;20016;-66
2022/11/15 05:54:29;;;;;;;2.85;2.22;;;19.50;45.20;18.50;100393.00;;;;5036612;28;19930;-66
2022/11/15 05:56:55;;;;;;;3.33;1.93;;;19.50;45.20;18.50;100396.00;;;;5036095;28;20032;-66
2022/11/15 05:59:21;;;;;;;2.80;2.20;;;19.50;45.20;18.50;100400.00;;;;5077829;28;20075;-66
2022/11/15 06:01:47;;;;;;;2.43;2.20;;;19.60;45.30;18.60;100402.00;;;;5052169;28;20525;-66
2022/11/15 06:04:12;;;;;;;3.77;2.73;;;19.50;45.30;18.60;100397.00;;;;5070388;28;20035;-66
2022/11/15 06:06:38;;;;;;;4.60;2.53;;;19.60;45.30;18.60;100399.00;;;;5070503;28;20111;-66
2022/11/15 06:09:04;;;;;;;2.13;1.90;;;19.50;45.30;18.60;100400.00;;;;5069845;28;20056;-66
2022/11/15 06:11:30;;;;;;;2.93;2.27;;;19.50;45.30;18.60;100403.00;;;;5069643;28;20062;-66
2022/11/15 06:13:56;;;;;;;2.77;2.20;;;19.50;45.30;18.60;100408.00;;;;5069911;28;20099;-66
2022/11/15 06:16:22;;;;;;;2.05;1.80;;;19.50;45.30;18.60;100408.00;;;;5069641;28;20036;-66
2022/11/15 06:18:48;;;;;;;3.23;2.00;;;19.50;45.40;18.60;100402.00;;;;5069353;28;20470;-66
2022/11/15 06:21:13;;;;;;;3.07;2.10;;;19.50;45.40;18.60;100409.00;;;;5067172;28;20545;-66
2022/11/15 06:23:39;;;;;;;4.70;1.93;;;19.60;45.50;18.60;100410.00;;;;5069660;28;20182;-66
2022/11/15 06:26:05;;;;;;;3.20;2.03;;;19.50;45.40;18.60;100420.00;;;;5068893;28;20130;-66
2022/11/15 06:28:31;;;;;;;2.97;2.27;;;19.60;45.40;18.60;100420.00;;;;5049435;28;20041;-66
2022/11/15 06:31:06;;;;;;;2.22;1.77;;;19.60;45.50;18.60;100418.00;;;;5049391;28;20684;-66
2022/11/15 06:33:31;;;;;;;3.03;2.17;;;19.40;45.40;18.60;100421.00;;;;5069145;28;20031;-66
2022/11/15 06:36:09;;;;;;;2.73;2.30;;;19.60;45.50;18.60;100420.00;;;;5069748;28;20040;-66
2022/11/15 06:38:34;;;;;;;2.78;2.33;;;19.60;45.60;18.60;100418.00;;;;5050826;28;20046;-66
2022/11/15 06:41:10;;;;;;;3.40;2.53;;;19.50;45.50;18.60;100411.00;;;;5051078;28;20037;-66
2022/11/15 06:43:36;;;;;;;3.17;2.30;;;19.50;45.60;18.60;100417.00;;;;5050419;28;20492;-66
2022/11/15 06:46:02;;;;;;;3.00;2.70;;;19.60;45.60;18.60;100422.00;;;;5050080;28;20112;-66
2022/11/15 06:48:29;;;;;;;3.72;3.08;;;19.60;45.70;18.60;100423.00;;;;5064841;28;20394;-66
2022/11/15 06:50:56;;;;;;;4.13;2.85;;;19.60;45.60;18.60;100426.00;;;;5074377;28;20114;-66
2022/11/15 06:53:22;;;;;;;4.88;3.20;;;19.60;45.70;18.60;100420.00;;;;5047598;28;20099;-66
2022/11/15 06:55:48;;;;;;;7.18;2.42;;;19.60;45.70;18.60;100429.00;;;;5050882;28;20064;-66
2022/11/15 06:58:14;;;;;;;3.47;2.60;;;19.50;45.60;18.60;100428.00;;;;5068247;28;20032;-66
2022/11/15 07:00:40;;;;;;;3.40;2.67;;;19.60;45.80;18.60;100430.00;;;;5068809;28;20079;-66
2022/11/15 07:03:06;;;;;;;3.90;2.43;;;19.60;45.70;18.60;100425.00;;;;5068234;28;20055;-66
2022/11/15 07:05:31;;;;;;;3.50;2.70;;;19.60;45.70;18.60;100433.00;;;;5069299;28;20032;-66
2022/11/15 07:07:57;;;;;;;3.23;2.60;;;19.70;45.90;18.70;100429.00;;;;5064215;28;20645;-66
2022/11/15 07:10:24;;;;;;;6.73;2.90;;;19.60;46.00;18.70;100438.00;;;;5049809;28;20036;-66
2022/11/15 07:12:50;;;;;;;;;;;19.60;45.90;18.60;100442.00;;;;5050740;28;20032;-66
2022/11/15 07:15:17;;;;;;;7.35;2.80;;;19.60;45.70;18.60;100440.00;;;;5066503;28;20275;-66
2022/11/15 07:17:43;;;;;;;8.77;2.80;;;19.60;45.70;18.60;100446.00;;;;5069421;28;20039;-66
2022/11/15 07:20:09;;;;;;;4.53;2.50;;;19.60;45.80;18.60;100447.00;;;;5072081;28;20020;-66
2022/11/15 07:22:35;;;;;;;3.83;2.42;;;19.70;45.80;18.60;100450.00;;;;5064289;28;20033;-66
2022/11/15 07:25:00;;;;;;;6.63;2.80;;;19.60;45.80;18.70;100445.00;;;;5072283;28;20089;-66
2022/11/15 07:27:26;;;;;;;3.40;2.50;;;19.70;45.90;18.70;100449.00;;;;5072640;28;20207;-67
2022/11/15 07:29:52;;;;;;;7.43;2.93;;;19.70;46.00;18.70;100445.00;;;;5073440;28;20112;-66
2022/11/15 07:32:17;;;;;;;8.30;3.33;;;19.60;45.90;18.70;100448.00;;;;5073438;28;20450;-66
2022/11/15 07:34:45;;;;;;;6.90;2.90;;;19.60;45.90;18.70;100451.00;;;;5072613;28;20529;-66
2022/11/15 07:37:11;;;;;;;6.50;2.72;;;19.60;46.00;18.70;100448.00;;;;5073362;28;20028;-66
2022/11/15 07:39:36;;;;;;;5.03;2.45;;;19.60;46.00;18.70;100455.00;;;;5072640;28;20037;-66
2022/11/15 07:44:46;;;;;;;11.25;2.78;;;19.60;46.00;18.70;100447.00;;;;5071907;28;20078;-66
2022/11/15 07:47:12;;;;;;;4.40;2.50;;;19.60;46.10;18.70;100455.00;;;;5072779;28;20440;-66
2022/11/15 07:49:38;;;;;;;4.63;2.70;;;19.60;46.00;18.70;100449.00;;;;5072215;28;20108;-66
2022/11/15 07:52:04;;;;;;;6.23;2.80;;;19.60;46.10;18.70;100449.00;;;;5054147;28;20029;-66
2022/11/15 07:54:29;;;;;;;4.07;2.47;;;19.60;46.80;18.70;100449.00;;;;5053563;28;20473;-66
2022/11/15 07:56:55;;;;;;;4.33;3.03;;;19.60;46.10;18.70;100452.00;;;;5053406;28;20028;-66
2022/11/15 07:59:21;;;;;;;4.37;2.43;;;19.60;46.10;18.70;100455.00;;;;5053469;28;20580;-67
2022/11/15 08:01:47;;;;;;;5.27;2.73;;;19.60;46.10;18.70;100454.00;;;;5071355;28;20585;-66
2022/11/15 08:04:12;;;;;;;3.23;2.43;;;19.50;46.10;18.70;100453.00;;;;5072888;28;20036;-66
2022/11/15 08:06:38;;;;;;;5.63;2.40;;;19.60;46.10;18.70;100456.00;;;;5071714;28;20115;-66
2022/11/15 08:09:04;;;;;;;4.60;2.70;;;19.60;46.10;18.70;100448.00;;;;5071776;28;20103;-66
2022/11/15 08:11:30;;;;;;;4.07;2.53;;;19.60;46.20;18.70;100449.00;;;;5054449;28;20458;-66
2022/11/15 08:13:56;;;;;;;4.40;2.60;;;19.70;46.20;18.70;100446.00;;;;5071787;28;20024;-66
2022/11/15 08:16:21;;;;;;;5.07;2.43;;;19.60;46.20;18.70;100460.00;;;;5054435;28;20041;-66
2022/11/15 08:18:47;;;;;;;5.80;2.50;;;19.70;46.30;18.70;100445.00;;;;5068152;28;20132;-66
2022/11/15 08:21:16;;;;;;;3.90;2.77;;;19.70;46.30;18.70;100445.00;;;;5070220;28;20028;-66
2022/11/15 08:23:42;;;;;;;3.10;2.40;;;19.60;46.30;18.70;100454.00;;;;5051808;28;20044;-66
2022/11/15 08:26:08;;;;;;;4.20;2.20;;;19.70;46.30;18.70;100438.00;;;;5069923;28;20032;-66
2022/11/15 08:28:34;;;;;;;;;;;19.60;46.30;18.70;100442.00;;;;5055538;28;20029;-66
2022/11/15 08:31:00;;;;;;;2.45;2.13;;;19.70;46.10;18.70;100444.00;;;;5073169;28;19920;-66
2022/11/15 08:33:25;;;;;;;4.23;2.20;;;19.70;46.30;18.70;100444.00;;;;5071788;28;20037;-66
2022/11/15 08:35:51;;;;;;;3.83;2.87;;;19.70;46.30;18.70;100443.00;;;;5053384;28;20470;-66
2022/11/15 08:38:17;;;;;;;3.43;2.27;;;19.70;46.40;18.70;100436.00;;;;5072187;28;20548;-66
2022/11/15 08:40:42;;;;;;;2.97;2.40;;;19.60;46.50;18.70;100433.00;;;;5053581;28;20525;-66
2022/11/15 08:43:08;;;;;;;3.63;2.47;;;19.60;46.50;18.70;100430.00;;;;5079582;28;20099;-66
2022/11/15 08:45:34;;;;;;;4.90;2.70;;;19.60;46.50;18.70;100426.00;;;;5071557;28;20120;-66
2022/11/15 08:48:02;;;;;;;3.53;2.58;;;19.70;46.60;18.70;100431.00;;;;5071220;28;20028;-66
2022/11/15 08:50:27;;;;;;;3.92;2.38;;;19.60;46.50;18.70;100432.00;;;;5071157;28;20040;-66
2022/11/15 08:52:53;;;;;;;2.73;2.33;;;19.60;46.50;18.70;100429.00;;;;5071006;28;20021;-66
2022/11/15 08:55:19;;;;;;;2.57;2.37;;;19.60;46.60;18.70;100423.00;;;;5070957;28;20048;-66
2022/11/15 08:57:45;;;;;;;3.83;2.40;;;19.60;46.60;18.70;100433.00;;;;5070986;28;20020;-66
2022/11/15 09:00:12;;;;;;;4.63;2.70;;;19.60;46.60;18.70;100418.00;;;;5071394;28;20028;-66
2022/11/15 09:02:39;;;;;;;3.92;2.30;;;19.60;46.70;18.70;100427.00;;;;5061417;28;20024;-66
2022/11/15 09:05:06;;;;;;;5.60;2.35;;;19.60;46.80;18.70;100418.00;;;;5053312;28;20029;-66
2022/11/15 09:07:32;;;;;;;2.47;2.15;;;19.60;47.50;18.70;100429.00;;;;5067951;28;20129;-66
2022/11/15 09:09:58;;;;;;;3.83;2.40;;;19.60;46.80;18.70;100416.00;;;;5070121;28;20024;-66
2022/11/15 09:12:24;;;;;;;2.97;2.13;;;19.70;46.90;18.70;100417.00;;;;5070303;28;20044;-66
2022/11/15 09:14:50;;;;;;;3.08;2.65;;;19.70;46.90;18.70;100423.00;;;;5068029;28;20024;-66
2022/11/15 09:17:16;;;;;;;4.00;2.73;;;19.70;46.90;18.70;100422.00;;;;5068483;28;20035;-66
2022/11/15 09:19:41;;;;;;;2.57;2.13;;;19.70;46.90;18.70;100420.00;;;;5051679;28;20502;-66
2022/11/15 09:22:07;;;;;;;5.07;2.63;;;19.70;46.90;18.70;100422.00;;;;5067503;28;20036;-66
2022/11/15 09:24:34;;;;;;;4.82;2.50;;;19.70;47.00;18.70;100418.00;;;;5075146;28;20032;-66
2022/11/15 09:27:00;;;;;;;2.88;2.05;;;19.70;47.00;18.70;100420.00;;;;5051021;28;20039;-66
2022/11/15 09:29:26;;;;;;;2.77;2.20;;;19.70;47.00;18.70;100421.00;;;;5069567;28;20494;-66
2022/11/15 09:31:52;;;;;;;3.53;2.03;;;19.70;47.00;18.70;100416.00;;;;5048888;28;20100;-66
2022/11/15 09:34:19;;;;;;;3.08;2.03;;;19.60;47.00;18.70;100412.00;;;;5068462;28;20466;-66
2022/11/15 09:36:44;;;;;;;2.85;2.42;;;19.70;47.10;18.70;100411.00;;;;5068437;28;20032;-66
2022/11/15 09:39:11;;;;;;;4.17;2.03;;;19.80;47.20;18.70;100410.00;;;;5069651;28;20097;-66
2022/11/15 09:42:14;;;;;;;2.60;2.13;;;19.70;47.20;18.70;100412.00;;;;5037465;28;20047;-66
2022/11/15 09:45:05;;;;;;;2.90;2.20;;;19.70;47.30;18.70;100406.00;;;;5069925;28;20371;-66
2022/11/15 09:47:39;;;;;;;4.10;2.10;;;19.70;47.30;18.70;100408.00;;;;5048215;28;20082;-66
2022/11/15 09:50:14;;;;;;;3.95;2.05;;;19.70;47.40;18.70;100408.00;;;;5075768;28;20103;-66
2022/11/15 09:52:43;;;;;;;3.45;2.40;;;19.70;47.40;18.70;100405.00;;;;5049817;28;20029;-66
2022/11/15 09:55:21;;;;;;;3.53;2.00;;;19.70;47.70;18.70;100398.00;;;;5054355;28;20051;-66
2022/11/15 09:57:50;;;;;;;;;;;19.70;47.90;18.70;100402.00;;;;5035166;28;20035;-66
2022/11/15 10:00:25;;;;;;;2.95;2.00;;;19.70;47.30;18.70;100396.00;;;;5049573;28;19973;-66
2022/11/15 10:03:11;;;;;;;2.13;1.88;;;19.70;47.50;18.70;100391.00;;;;5042853;28;20107;-66
2022/11/15 10:05:43;;;;;;;2.65;2.28;;;19.70;47.60;18.70;100396.00;;;;5079038;28;20123;-66
2022/11/15 10:08:41;;;;;;;3.03;2.20;;;19.60;47.70;18.70;100397.00;;;;5054469;28;20024;-66
2022/11/15 10:11:09;;;;;;;2.88;2.22;;;19.70;47.80;18.70;100396.00;;;;5048652;28;20490;-66
2022/11/15 10:13:41;;;;;;;2.33;1.90;;;19.70;47.70;18.70;100406.00;;;;5045034;28;20029;-66
2022/11/15 10:16:28;;;;;;;1.60;1.50;;;19.70;48.60;18.70;100390.00;;;;5079322;28;20024;-66
2022/11/15 10:19:08;;;;;;;1.88;1.70;;;19.60;47.90;18.70;100395.00;;;;5065824;28;20104;-66
2022/11/15 10:21:58;;;;;;;2.95;2.25;;;19.60;48.00;18.70;100396.00;;;;5070222;28;20135;-66
2022/11/15 10:24:30;;;;;;;1.70;1.52;;;19.60;48.10;18.70;100386.00;;;;5069561;28;20040;-66
2022/11/15 10:26:56;;;;;;;1.92;1.30;;;19.60;48.00;18.60;100371.00;;;;5066382;28;20480;-66
2022/11/15 10:29:23;;;;;;;2.30;1.50;;;19.60;48.70;18.70;100373.00;;;;5053113;28;20031;-66
2022/11/15 10:31:49;;;;;;;1.90;1.60;;;19.60;48.10;18.60;100375.00;;;;5052498;28;20466;-68
2022/11/15 10:34:21;;;;;;;1.87;1.27;;;19.50;48.10;18.60;100372.00;;;;5050764;28;20040;-66
2022/11/15 10:37:07;;;;;;;1.40;1.30;;;19.70;48.30;18.60;100382.00;;;;5051781;28;20057;-66
2022/11/15 10:39:36;;;;;;;1.80;1.13;;;19.70;48.10;18.60;100386.00;;;;5038265;28;20102;-66
2022/11/15 10:42:25;;;;;;;1.67;1.20;;;19.60;48.10;18.60;100383.00;;;;5069700;28;20111;-66
2022/11/15 10:44:51;;;;;;;1.42;1.05;;;19.60;48.20;18.60;100377.00;;;;5052597;28;20028;-66
2022/11/15 10:47:31;;;;;;;0.90;0.90;;;19.60;48.10;18.60;100377.00;;;;5068866;28;20377;-66
2022/11/15 10:50:03;;;;;;;0.70;0.70;;;19.60;48.80;18.60;100384.00;;;;5051622;28;20023;-66
2022/11/15 10:52:29;;;;;;;1.45;0.98;;;19.60;48.00;18.60;100373.00;;;;5069008;28;20033;-66
2022/11/15 10:55:05;;;;;;;1.00;0.90;;;19.70;48.00;18.60;100372.00;;;;5044980;28;20031;-66
2022/11/15 10:57:33;;;;;;;1.15;0.90;;;19.50;48.00;18.60;100368.00;;;;5055213;28;20462;-66
2022/11/15 11:00:18;;;;;;;1.50;0.90;;;19.60;47.90;18.60;100374.00;;;;5082355;28;20016;-66
2022/11/15 11:02:56;;;;;;;1.13;0.70;;;19.60;48.00;18.60;100361.00;;;;5050391;28;20020;-66
2022/11/15 11:05:34;;;;;;;1.10;0.70;;;19.60;47.90;18.60;100364.00;;;;5073788;28;20033;-66
2022/11/15 11:08:24;;;;;;;2.05;0.65;;;19.60;47.90;18.60;100360.00;;;;5055360;28;20547;-66
2022/11/15 11:10:59;;;;;;;1.05;0.70;;;19.60;47.90;18.60;100361.00;;;;5060272;28;20037;-66
2022/11/15 11:13:30;;;;;;;1.10;0.80;;;19.60;47.90;18.60;100355.00;;;;5047206;28;20021;-66